Hlavní strana
METAR-TAF:

METAR-TAF

Letiště :

Owensboro-Daviess County Airport

Owensboro, Kentucky, Spojené státy americké

zeměpisná šířka: 37-44N, zeměpisná délka: 087-10W, výška: 124 m

Aktuální stav počasí

Zpráva byla vytvořena před 48 minutami, v 02:56 UTC
Východoseverovýchodní vítr 7 kt
Teplota 7°C
Vlhkost vzduchu 87%
Tlak 1022 hPa
Viditelnost: 16.1 km
Jasno

METAR: KOWB 180256Z 07007KT 10SM CLR 07/05 A3017 RMK AO2 SLP229 T00720050 51002

Čas: 21:44 (03:44 UTC)

Předpověď počasí

Zpráva byla vytvořena před 4 hodinami a 13 minutami, v 23:31 UTC
Předpověď platná od 18 v 00 UTC do 18 v 24 UTC
Východní vítr 4 kt
Viditelnost: 10 km
Oblačno až skoro zataženo ve výšce 25000 ft
Od 18 v 1100 UTC
vítr z různých směrů 3 kt
Viditelnost: 10 km
Oblačno až skoro zataženo ve výšce 3500 ft
Od 18 v 1500 UTC
Severozápadní vítr 7 kt
Viditelnost: 10 km
Oblačno až skoro zataženo ve výšce 2500 ft

TAF: KOWB 172331Z 1800/1824 08004KT P6SM BKN250 FM181100 VRB03KT P6SM BKN035 FM181500 31007KT P6SM BKN025

Stav a předpovědi počasí z více než 4 000 letišť (zprávy METAR a TAF).

Červené a žluté tečky na mapě představují dostupné meteorologické stanice.

Když kurzor umístíte na tečku, zobrazí se název stanice.

Pak kliknutím zobrazíte stav a předpověď počasí.

Chcete-li změnit mapu, kliknutím na zelené tlačítko se znaménkem +mapu přiblížíte, kliknutím na zelené tlačítko se znaménkem – mapu oddálíte a kliknutím na zelené šipky přejdete na sousední mapy.


METAR-TAF: